sensor_id;sensor_type;location;lat;lon;timestamp;temperature;humidity
23207;DHT22;11773;52.570;13.052;2022-08-19T00:00:30;24.40;99.90
23207;DHT22;11773;52.570;13.052;2022-08-19T00:02:59;24.40;99.90
23207;DHT22;11773;52.570;13.052;2022-08-19T00:05:29;24.40;99.90
23207;DHT22;11773;52.570;13.052;2022-08-19T00:07:59;24.50;99.90
23207;DHT22;11773;52.570;13.052;2022-08-19T00:10:29;24.60;99.90
23207;DHT22;11773;52.570;13.052;2022-08-19T00:12:58;24.50;99.90
23207;DHT22;11773;52.570;13.052;2022-08-19T00:15:28;24.60;99.90
23207;DHT22;11773;52.570;13.052;2022-08-19T00:17:58;24.40;99.90
23207;DHT22;11773;52.570;13.052;2022-08-19T00:20:27;24.40;99.90
23207;DHT22;11773;52.570;13.052;2022-08-19T00:22:57;24.50;99.90
23207;DHT22;11773;52.570;13.052;2022-08-19T00:25:26;24.50;99.90
23207;DHT22;11773;52.570;13.052;2022-08-19T00:27:58;24.40;99.90
23207;DHT22;11773;52.570;13.052;2022-08-19T00:30:28;24.50;99.90
23207;DHT22;11773;52.570;13.052;2022-08-19T00:32:58;24.50;99.90
23207;DHT22;11773;52.570;13.052;2022-08-19T00:35:28;24.60;99.90
23207;DHT22;11773;52.570;13.052;2022-08-19T00:37:57;24.60;99.90
23207;DHT22;11773;52.570;13.052;2022-08-19T00:40:27;24.60;99.90
23207;DHT22;11773;52.570;13.052;2022-08-19T00:42:58;24.60;99.90
23207;DHT22;11773;52.570;13.052;2022-08-19T00:45:29;24.60;99.90
23207;DHT22;11773;52.570;13.052;2022-08-19T00:48:01;24.50;99.90
23207;DHT22;11773;52.570;13.052;2022-08-19T00:50:35;24.50;99.90
23207;DHT22;11773;52.570;13.052;2022-08-19T00:53:15;24.50;99.90
23207;DHT22;11773;52.570;13.052;2022-08-19T00:55:50;24.50;99.90
23207;DHT22;11773;52.570;13.052;2022-08-19T00:58:24;24.60;99.90
23207;DHT22;11773;52.570;13.052;2022-08-19T01:00:55;24.60;99.90
23207;DHT22;11773;52.570;13.052;2022-08-19T01:03:25;24.50;99.90
23207;DHT22;11773;52.570;13.052;2022-08-19T01:05:55;24.50;99.90
23207;DHT22;11773;52.570;13.052;2022-08-19T01:08:25;24.40;99.90
23207;DHT22;11773;52.570;13.052;2022-08-19T01:10:58;24.40;99.90
23207;DHT22;11773;52.570;13.052;2022-08-19T01:13:30;24.40;99.90
23207;DHT22;11773;52.570;13.052;2022-08-19T01:16:06;24.30;99.90
23207;DHT22;11773;52.570;13.052;2022-08-19T01:18:40;24.20;99.90
23207;DHT22;11773;52.570;13.052;2022-08-19T01:21:22;24.10;99.90
23207;DHT22;11773;52.570;13.052;2022-08-19T01:23:56;23.90;99.90
23207;DHT22;11773;52.570;13.052;2022-08-19T01:26:27;24.20;99.90
23207;DHT22;11773;52.570;13.052;2022-08-19T01:28:59;24.20;99.90
23207;DHT22;11773;52.570;13.052;2022-08-19T01:31:30;24.20;99.90
23207;DHT22;11773;52.570;13.052;2022-08-19T01:34:01;24.30;99.90
23207;DHT22;11773;52.570;13.052;2022-08-19T01:36:35;24.30;99.90
23207;DHT22;11773;52.570;13.052;2022-08-19T01:39:09;24.30;99.90
23207;DHT22;11773;52.570;13.052;2022-08-19T01:41:40;24.20;99.90
23207;DHT22;11773;52.570;13.052;2022-08-19T01:44:11;24.20;99.90
23207;DHT22;11773;52.570;13.052;2022-08-19T01:46:43;24.30;99.90
23207;DHT22;11773;52.570;13.052;2022-08-19T01:49:18;24.30;99.90
23207;DHT22;11773;52.570;13.052;2022-08-19T01:51:49;24.40;99.90
23207;DHT22;11773;52.570;13.052;2022-08-19T01:54:21;24.30;99.90
23207;DHT22;11773;52.570;13.052;2022-08-19T01:56:58;24.30;99.90
23207;DHT22;11773;52.570;13.052;2022-08-19T01:59:28;24.20;99.90
23207;DHT22;11773;52.570;13.052;2022-08-19T02:02:19;24.20;99.90
23207;DHT22;11773;52.570;13.052;2022-08-19T02:04:48;24.20;99.90
23207;DHT22;11773;52.570;13.052;2022-08-19T02:07:20;24.20;99.90
23207;DHT22;11773;52.570;13.052;2022-08-19T02:09:49;24.30;99.90
23207;DHT22;11773;52.570;13.052;2022-08-19T02:12:19;24.30;99.90
23207;DHT22;11773;52.570;13.052;2022-08-19T02:14:49;24.20;99.90
23207;DHT22;11773;52.570;13.052;2022-08-19T02:17:18;24.20;99.90
23207;DHT22;11773;52.570;13.052;2022-08-19T02:19:48;24.30;99.90
23207;DHT22;11773;52.570;13.052;2022-08-19T02:22:17;24.10;99.90
23207;DHT22;11773;52.570;13.052;2022-08-19T02:24:47;24.00;99.90
23207;DHT22;11773;52.570;13.052;2022-08-19T02:27:17;24.10;99.90
23207;DHT22;11773;52.570;13.052;2022-08-19T02:29:48;24.00;99.90
23207;DHT22;11773;52.570;13.052;2022-08-19T02:32:19;24.00;99.90
23207;DHT22;11773;52.570;13.052;2022-08-19T02:34:49;24.00;99.90
23207;DHT22;11773;52.570;13.052;2022-08-19T02:37:19;24.10;99.90
23207;DHT22;11773;52.570;13.052;2022-08-19T02:40:06;24.00;99.90
23207;DHT22;11773;52.570;13.052;2022-08-19T02:42:38;23.90;99.90
23207;DHT22;11773;52.570;13.052;2022-08-19T02:45:08;23.60;99.90
23207;DHT22;11773;52.570;13.052;2022-08-19T02:47:38;23.70;99.90
23207;DHT22;11773;52.570;13.052;2022-08-19T02:50:08;23.50;99.90
23207;DHT22;11773;52.570;13.052;2022-08-19T02:52:38;23.30;99.90
23207;DHT22;11773;52.570;13.052;2022-08-19T02:55:08;23.00;99.90
23207;DHT22;11773;52.570;13.052;2022-08-19T02:57:38;23.10;99.90
23207;DHT22;11773;52.570;13.052;2022-08-19T03:00:10;23.20;99.90
23207;DHT22;11773;52.570;13.052;2022-08-19T03:02:40;22.80;99.90
23207;DHT22;11773;52.570;13.052;2022-08-19T03:05:10;22.90;99.90
23207;DHT22;11773;52.570;13.052;2022-08-19T03:07:40;22.70;99.90
23207;DHT22;11773;52.570;13.052;2022-08-19T03:10:10;22.70;99.90
23207;DHT22;11773;52.570;13.052;2022-08-19T03:12:39;22.90;99.90
23207;DHT22;11773;52.570;13.052;2022-08-19T03:15:09;23.00;99.90
23207;DHT22;11773;52.570;13.052;2022-08-19T03:17:39;22.80;99.90
23207;DHT22;11773;52.570;13.052;2022-08-19T03:20:08;22.80;99.90
23207;DHT22;11773;52.570;13.052;2022-08-19T03:22:38;22.90;99.90
23207;DHT22;11773;52.570;13.052;2022-08-19T03:25:08;22.80;99.90
23207;DHT22;11773;52.570;13.052;2022-08-19T03:27:39;23.00;99.90
23207;DHT22;11773;52.570;13.052;2022-08-19T03:30:10;23.00;99.90
23207;DHT22;11773;52.570;13.052;2022-08-19T03:32:42;23.00;99.90
23207;DHT22;11773;52.570;13.052;2022-08-19T03:35:12;23.00;99.90
23207;DHT22;11773;52.570;13.052;2022-08-19T03:37:41;23.20;99.90
23207;DHT22;11773;52.570;13.052;2022-08-19T03:40:11;23.20;99.90
23207;DHT22;11773;52.570;13.052;2022-08-19T03:42:42;23.10;99.90
23207;DHT22;11773;52.570;13.052;2022-08-19T03:45:13;23.00;99.90
23207;DHT22;11773;52.570;13.052;2022-08-19T03:47:43;22.80;99.90
23207;DHT22;11773;52.570;13.052;2022-08-19T03:50:13;22.90;99.90
23207;DHT22;11773;52.570;13.052;2022-08-19T03:52:42;23.10;99.90
23207;DHT22;11773;52.570;13.052;2022-08-19T03:55:13;23.10;99.90
23207;DHT22;11773;52.570;13.052;2022-08-19T03:57:43;23.20;99.90
23207;DHT22;11773;52.570;13.052;2022-08-19T04:00:15;23.10;99.90
23207;DHT22;11773;52.570;13.052;2022-08-19T04:02:45;23.10;99.90
23207;DHT22;11773;52.570;13.052;2022-08-19T04:05:16;23.30;99.90
23207;DHT22;11773;52.570;13.052;2022-08-19T04:07:48;23.10;99.90
23207;DHT22;11773;52.570;13.052;2022-08-19T04:10:17;23.20;99.90
23207;DHT22;11773;52.570;13.052;2022-08-19T04:12:47;23.20;99.90
23207;DHT22;11773;52.570;13.052;2022-08-19T04:15:17;23.10;99.90
23207;DHT22;11773;52.570;13.052;2022-08-19T04:17:48;23.00;99.90
23207;DHT22;11773;52.570;13.052;2022-08-19T04:20:17;23.00;99.90
23207;DHT22;11773;52.570;13.052;2022-08-19T04:22:47;23.00;99.90
23207;DHT22;11773;52.570;13.052;2022-08-19T04:25:16;22.90;99.90
23207;DHT22;11773;52.570;13.052;2022-08-19T04:27:46;22.90;99.90
23207;DHT22;11773;52.570;13.052;2022-08-19T04:30:16;22.90;99.90
23207;DHT22;11773;52.570;13.052;2022-08-19T04:32:46;23.00;99.90
23207;DHT22;11773;52.570;13.052;2022-08-19T04:35:17;23.00;99.90
23207;DHT22;11773;52.570;13.052;2022-08-19T04:37:49;23.00;99.90
23207;DHT22;11773;52.570;13.052;2022-08-19T04:40:18;23.00;99.90
23207;DHT22;11773;52.570;13.052;2022-08-19T04:43:05;23.00;99.90
23207;DHT22;11773;52.570;13.052;2022-08-19T04:45:36;23.00;99.90
23207;DHT22;11773;52.570;13.052;2022-08-19T04:48:08;23.00;99.90
23207;DHT22;11773;52.570;13.052;2022-08-19T04:50:41;23.10;99.90
23207;DHT22;11773;52.570;13.052;2022-08-19T04:53:11;23.00;99.90
23207;DHT22;11773;52.570;13.052;2022-08-19T04:55:42;23.00;99.90
23207;DHT22;11773;52.570;13.052;2022-08-19T04:58:11;23.00;99.90
23207;DHT22;11773;52.570;13.052;2022-08-19T05:00:42;23.10;99.90
23207;DHT22;11773;52.570;13.052;2022-08-19T05:03:12;23.10;99.90
23207;DHT22;11773;52.570;13.052;2022-08-19T05:05:45;23.10;99.90
23207;DHT22;11773;52.570;13.052;2022-08-19T05:08:20;23.10;99.90
23207;DHT22;11773;52.570;13.052;2022-08-19T05:10:52;22.90;99.90
23207;DHT22;11773;52.570;13.052;2022-08-19T05:13:21;22.90;99.90
23207;DHT22;11773;52.570;13.052;2022-08-19T05:15:56;23.00;99.90
23207;DHT22;11773;52.570;13.052;2022-08-19T05:18:26;23.10;99.90
23207;DHT22;11773;52.570;13.052;2022-08-19T05:21:16;23.00;99.90
23207;DHT22;11773;52.570;13.052;2022-08-19T05:24:05;23.10;99.90
23207;DHT22;11773;52.570;13.052;2022-08-19T05:26:41;23.10;99.90
23207;DHT22;11773;52.570;13.052;2022-08-19T05:29:16;23.10;99.90
23207;DHT22;11773;52.570;13.052;2022-08-19T05:31:49;22.90;99.90
23207;DHT22;11773;52.570;13.052;2022-08-19T05:34:21;23.10;99.90
23207;DHT22;11773;52.570;13.052;2022-08-19T05:36:57;23.30;99.90
23207;DHT22;11773;52.570;13.052;2022-08-19T05:39:32;23.40;99.90
23207;DHT22;11773;52.570;13.052;2022-08-19T05:42:08;23.40;99.90
23207;DHT22;11773;52.570;13.052;2022-08-19T05:44:41;23.40;99.90
23207;DHT22;11773;52.570;13.052;2022-08-19T05:47:17;23.30;99.90
23207;DHT22;11773;52.570;13.052;2022-08-19T05:49:50;23.50;99.90
23207;DHT22;11773;52.570;13.052;2022-08-19T05:52:20;23.50;99.90
23207;DHT22;11773;52.570;13.052;2022-08-19T05:54:51;23.60;99.90
23207;DHT22;11773;52.570;13.052;2022-08-19T05:57:24;23.60;99.90
23207;DHT22;11773;52.570;13.052;2022-08-19T05:59:55;23.50;99.90
23207;DHT22;11773;52.570;13.052;2022-08-19T06:02:28;23.60;99.90
23207;DHT22;11773;52.570;13.052;2022-08-19T06:05:02;23.70;99.90
23207;DHT22;11773;52.570;13.052;2022-08-19T06:07:36;23.80;99.90
23207;DHT22;11773;52.570;13.052;2022-08-19T06:10:08;23.90;99.90
23207;DHT22;11773;52.570;13.052;2022-08-19T06:12:39;23.90;99.90
23207;DHT22;11773;52.570;13.052;2022-08-19T06:15:11;24.00;99.90
23207;DHT22;11773;52.570;13.052;2022-08-19T06:17:42;23.90;99.90
23207;DHT22;11773;52.570;13.052;2022-08-19T06:20:15;24.00;99.90
23207;DHT22;11773;52.570;13.052;2022-08-19T06:22:48;24.00;99.90
23207;DHT22;11773;52.570;13.052;2022-08-19T06:25:18;24.10;99.90
23207;DHT22;11773;52.570;13.052;2022-08-19T06:27:48;24.00;99.90
23207;DHT22;11773;52.570;13.052;2022-08-19T06:30:19;24.10;99.90
23207;DHT22;11773;52.570;13.052;2022-08-19T06:32:49;23.80;99.90
23207;DHT22;11773;52.570;13.052;2022-08-19T06:35:19;24.10;99.90
23207;DHT22;11773;52.570;13.052;2022-08-19T06:37:49;24.40;99.90
23207;DHT22;11773;52.570;13.052;2022-08-19T06:40:20;24.60;99.90
23207;DHT22;11773;52.570;13.052;2022-08-19T06:42:49;24.70;99.90
23207;DHT22;11773;52.570;13.052;2022-08-19T06:45:22;24.70;99.90
23207;DHT22;11773;52.570;13.052;2022-08-19T06:47:55;24.70;99.90
23207;DHT22;11773;52.570;13.052;2022-08-19T06:50:28;24.60;99.90
23207;DHT22;11773;52.570;13.052;2022-08-19T06:52:57;24.90;99.90
23207;DHT22;11773;52.570;13.052;2022-08-19T06:55:28;25.00;99.90
23207;DHT22;11773;52.570;13.052;2022-08-19T06:58:04;25.00;99.90
23207;DHT22;11773;52.570;13.052;2022-08-19T07:00:34;25.10;99.90
23207;DHT22;11773;52.570;13.052;2022-08-19T07:03:04;25.10;99.90
23207;DHT22;11773;52.570;13.052;2022-08-19T07:05:40;25.10;99.90
23207;DHT22;11773;52.570;13.052;2022-08-19T07:08:13;25.10;99.90
23207;DHT22;11773;52.570;13.052;2022-08-19T07:10:46;25.00;99.90
23207;DHT22;11773;52.570;13.052;2022-08-19T07:13:16;25.00;99.90
23207;DHT22;11773;52.570;13.052;2022-08-19T07:15:47;24.90;99.90
23207;DHT22;11773;52.570;13.052;2022-08-19T07:18:19;25.00;99.90
23207;DHT22;11773;52.570;13.052;2022-08-19T07:20:49;24.90;99.90
23207;DHT22;11773;52.570;13.052;2022-08-19T07:23:19;25.00;99.90
23207;DHT22;11773;52.570;13.052;2022-08-19T07:25:50;24.60;99.90
23207;DHT22;11773;52.570;13.052;2022-08-19T07:28:20;24.90;99.90
23207;DHT22;11773;52.570;13.052;2022-08-19T07:30:52;25.00;99.90
23207;DHT22;11773;52.570;13.052;2022-08-19T07:33:22;24.90;99.90
23207;DHT22;11773;52.570;13.052;2022-08-19T07:35:53;24.90;99.90
23207;DHT22;11773;52.570;13.052;2022-08-19T07:38:22;24.70;99.90
23207;DHT22;11773;52.570;13.052;2022-08-19T07:40:53;24.90;99.90
23207;DHT22;11773;52.570;13.052;2022-08-19T07:43:23;24.90;99.90
23207;DHT22;11773;52.570;13.052;2022-08-19T07:45:55;25.00;99.90
23207;DHT22;11773;52.570;13.052;2022-08-19T07:48:26;25.10;99.90
23207;DHT22;11773;52.570;13.052;2022-08-19T07:50:59;25.20;99.90
23207;DHT22;11773;52.570;13.052;2022-08-19T07:53:31;25.20;99.90
23207;DHT22;11773;52.570;13.052;2022-08-19T07:56:03;25.20;99.90
23207;DHT22;11773;52.570;13.052;2022-08-19T07:58:36;25.20;99.90
23207;DHT22;11773;52.570;13.052;2022-08-19T08:01:09;24.90;99.90
23207;DHT22;11773;52.570;13.052;2022-08-19T08:03:41;25.00;99.90
23207;DHT22;11773;52.570;13.052;2022-08-19T08:06:14;25.00;99.90
23207;DHT22;11773;52.570;13.052;2022-08-19T08:09:03;25.00;99.90
23207;DHT22;11773;52.570;13.052;2022-08-19T08:11:41;25.00;99.90
23207;DHT22;11773;52.570;13.052;2022-08-19T08:14:18;24.90;99.90
23207;DHT22;11773;52.570;13.052;2022-08-19T08:16:51;24.90;99.90
23207;DHT22;11773;52.570;13.052;2022-08-19T08:19:23;24.90;99.90
23207;DHT22;11773;52.570;13.052;2022-08-19T08:21:57;25.00;99.90
23207;DHT22;11773;52.570;13.052;2022-08-19T08:24:29;24.90;99.90
23207;DHT22;11773;52.570;13.052;2022-08-19T08:27:00;24.80;99.90
23207;DHT22;11773;52.570;13.052;2022-08-19T08:29:33;24.70;99.90
23207;DHT22;11773;52.570;13.052;2022-08-19T08:32:02;24.60;99.90
23207;DHT22;11773;52.570;13.052;2022-08-19T08:34:34;24.70;99.90
23207;DHT22;11773;52.570;13.052;2022-08-19T08:37:04;24.70;99.90
23207;DHT22;11773;52.570;13.052;2022-08-19T08:39:34;24.80;99.90
23207;DHT22;11773;52.570;13.052;2022-08-19T08:42:32;24.70;99.90
23207;DHT22;11773;52.570;13.052;2022-08-19T08:44:53;24.70;99.90
23207;DHT22;11773;52.570;13.052;2022-08-19T08:47:34;24.90;99.90
23207;DHT22;11773;52.570;13.052;2022-08-19T08:50:29;25.00;99.90
23207;DHT22;11773;52.570;13.052;2022-08-19T08:52:57;24.80;99.90
23207;DHT22;11773;52.570;13.052;2022-08-19T08:55:29;24.90;99.90
23207;DHT22;11773;52.570;13.052;2022-08-19T08:58:06;24.90;99.90
23207;DHT22;11773;52.570;13.052;2022-08-19T09:00:47;24.90;99.90
23207;DHT22;11773;52.570;13.052;2022-08-19T09:03:20;24.90;99.90
23207;DHT22;11773;52.570;13.052;2022-08-19T09:08:47;24.90;99.90
23207;DHT22;11773;52.570;13.052;2022-08-19T09:11:55;24.90;99.90
23207;DHT22;11773;52.570;13.052;2022-08-19T09:14:50;24.90;99.90
23207;DHT22;11773;52.570;13.052;2022-08-19T09:17:29;25.00;99.90
23207;DHT22;11773;52.570;13.052;2022-08-19T09:22:46;24.90;99.90
23207;DHT22;11773;52.570;13.052;2022-08-19T09:25:19;25.00;99.90
23207;DHT22;11773;52.570;13.052;2022-08-19T09:27:55;25.10;99.90
23207;DHT22;11773;52.570;13.052;2022-08-19T09:30:29;25.10;99.90
23207;DHT22;11773;52.570;13.052;2022-08-19T09:33:01;25.10;99.90
23207;DHT22;11773;52.570;13.052;2022-08-19T09:35:31;24.90;99.90
23207;DHT22;11773;52.570;13.052;2022-08-19T09:38:04;25.00;99.90
23207;DHT22;11773;52.570;13.052;2022-08-19T09:40:35;25.00;99.90
23207;DHT22;11773;52.570;13.052;2022-08-19T09:43:08;24.90;99.90
23207;DHT22;11773;52.570;13.052;2022-08-19T09:45:40;25.00;99.90
23207;DHT22;11773;52.570;13.052;2022-08-19T09:48:09;25.10;99.90
23207;DHT22;11773;52.570;13.052;2022-08-19T09:50:40;25.10;99.90
23207;DHT22;11773;52.570;13.052;2022-08-19T09:53:12;25.10;99.90
23207;DHT22;11773;52.570;13.052;2022-08-19T09:55:46;25.20;99.90
23207;DHT22;11773;52.570;13.052;2022-08-19T09:58:15;25.10;99.90
23207;DHT22;11773;52.570;13.052;2022-08-19T10:00:46;25.20;99.90
23207;DHT22;11773;52.570;13.052;2022-08-19T10:03:18;25.20;99.90
23207;DHT22;11773;52.570;13.052;2022-08-19T10:05:49;25.10;99.90
23207;DHT22;11773;52.570;13.052;2022-08-19T10:08:27;25.00;99.90
23207;DHT22;11773;52.570;13.052;2022-08-19T10:10:58;24.90;99.90
23207;DHT22;11773;52.570;13.052;2022-08-19T10:13:32;25.00;99.90
23207;DHT22;11773;52.570;13.052;2022-08-19T10:16:09;25.20;99.90
23207;DHT22;11773;52.570;13.052;2022-08-19T10:18:42;25.20;99.90
23207;DHT22;11773;52.570;13.052;2022-08-19T10:21:16;25.30;99.90
23207;DHT22;11773;52.570;13.052;2022-08-19T10:23:56;25.20;99.90
23207;DHT22;11773;52.570;13.052;2022-08-19T10:26:35;25.00;99.90
23207;DHT22;11773;52.570;13.052;2022-08-19T10:29:00;24.90;99.90
23207;DHT22;11773;52.570;13.052;2022-08-19T10:31:32;24.90;99.90
23207;DHT22;11773;52.570;13.052;2022-08-19T10:34:04;25.20;99.90
23207;DHT22;11773;52.570;13.052;2022-08-19T10:36:36;25.10;99.90
23207;DHT22;11773;52.570;13.052;2022-08-19T10:39:09;25.00;99.90
23207;DHT22;11773;52.570;13.052;2022-08-19T10:41:40;25.00;99.90
23207;DHT22;11773;52.570;13.052;2022-08-19T10:44:12;24.90;99.90
23207;DHT22;11773;52.570;13.052;2022-08-19T10:46:44;25.00;99.90
23207;DHT22;11773;52.570;13.052;2022-08-19T10:49:16;24.80;99.90
23207;DHT22;11773;52.570;13.052;2022-08-19T10:51:46;24.80;99.90
23207;DHT22;11773;52.570;13.052;2022-08-19T10:54:35;24.90;99.90
23207;DHT22;11773;52.570;13.052;2022-08-19T10:57:22;24.90;99.90
23207;DHT22;11773;52.570;13.052;2022-08-19T10:59:56;24.90;99.90
23207;DHT22;11773;52.570;13.052;2022-08-19T11:02:25;25.00;99.90
23207;DHT22;11773;52.570;13.052;2022-08-19T11:04:55;24.90;99.90
23207;DHT22;11773;52.570;13.052;2022-08-19T11:07:27;24.80;99.90
23207;DHT22;11773;52.570;13.052;2022-08-19T11:09:56;24.90;99.90
23207;DHT22;11773;52.570;13.052;2022-08-19T11:12:26;25.10;99.90
23207;DHT22;11773;52.570;13.052;2022-08-19T11:14:55;25.00;99.90
23207;DHT22;11773;52.570;13.052;2022-08-19T11:17:25;24.80;99.90
23207;DHT22;11773;52.570;13.052;2022-08-19T11:19:54;24.70;99.90
23207;DHT22;11773;52.570;13.052;2022-08-19T11:22:24;24.90;99.90
23207;DHT22;11773;52.570;13.052;2022-08-19T11:24:55;25.00;99.90
23207;DHT22;11773;52.570;13.052;2022-08-19T11:27:24;25.20;99.90
23207;DHT22;11773;52.570;13.052;2022-08-19T11:29:54;25.10;99.90
23207;DHT22;11773;52.570;13.052;2022-08-19T11:32:24;25.20;99.90
23207;DHT22;11773;52.570;13.052;2022-08-19T11:34:53;25.30;99.90
23207;DHT22;11773;52.570;13.052;2022-08-19T11:37:23;25.10;99.90
23207;DHT22;11773;52.570;13.052;2022-08-19T11:39:52;25.00;99.90
23207;DHT22;11773;52.570;13.052;2022-08-19T11:42:22;24.80;99.90
23207;DHT22;11773;52.570;13.052;2022-08-19T11:45:09;24.90;99.90
23207;DHT22;11773;52.570;13.052;2022-08-19T11:47:40;25.10;99.90
23207;DHT22;11773;52.570;13.052;2022-08-19T11:50:09;25.30;99.90
23207;DHT22;11773;52.570;13.052;2022-08-19T11:52:39;25.40;99.90
23207;DHT22;11773;52.570;13.052;2022-08-19T11:55:09;25.50;99.90
23207;DHT22;11773;52.570;13.052;2022-08-19T11:57:40;25.20;99.90
23207;DHT22;11773;52.570;13.052;2022-08-19T12:00:12;25.20;99.90
23207;DHT22;11773;52.570;13.052;2022-08-19T12:02:42;25.30;99.90
23207;DHT22;11773;52.570;13.052;2022-08-19T12:05:11;25.50;99.90
23207;DHT22;11773;52.570;13.052;2022-08-19T12:07:41;25.60;99.90
23207;DHT22;11773;52.570;13.052;2022-08-19T12:10:11;25.60;99.90
23207;DHT22;11773;52.570;13.052;2022-08-19T12:12:42;25.60;99.90
23207;DHT22;11773;52.570;13.052;2022-08-19T12:15:15;25.70;99.90
23207;DHT22;11773;52.570;13.052;2022-08-19T12:17:44;25.60;99.90
23207;DHT22;11773;52.570;13.052;2022-08-19T12:20:14;25.70;99.90
23207;DHT22;11773;52.570;13.052;2022-08-19T12:22:44;25.50;99.90
23207;DHT22;11773;52.570;13.052;2022-08-19T12:25:16;25.50;99.90
23207;DHT22;11773;52.570;13.052;2022-08-19T12:27:47;25.50;99.90
23207;DHT22;11773;52.570;13.052;2022-08-19T12:30:19;25.60;99.90
23207;DHT22;11773;52.570;13.052;2022-08-19T12:32:48;25.50;99.90
23207;DHT22;11773;52.570;13.052;2022-08-19T12:35:19;25.60;99.90
23207;DHT22;11773;52.570;13.052;2022-08-19T12:37:49;25.60;99.90
23207;DHT22;11773;52.570;13.052;2022-08-19T12:40:20;25.70;99.90
23207;DHT22;11773;52.570;13.052;2022-08-19T12:42:52;25.80;99.90
23207;DHT22;11773;52.570;13.052;2022-08-19T12:45:22;25.60;99.90
23207;DHT22;11773;52.570;13.052;2022-08-19T12:47:53;25.70;99.90
23207;DHT22;11773;52.570;13.052;2022-08-19T12:50:23;25.70;99.90
23207;DHT22;11773;52.570;13.052;2022-08-19T12:52:52;25.80;99.90
23207;DHT22;11773;52.570;13.052;2022-08-19T12:55:22;25.50;99.90
23207;DHT22;11773;52.570;13.052;2022-08-19T12:57:52;25.50;99.90
23207;DHT22;11773;52.570;13.052;2022-08-19T13:00:22;25.60;99.90
23207;DHT22;11773;52.570;13.052;2022-08-19T13:02:52;25.50;99.90
23207;DHT22;11773;52.570;13.052;2022-08-19T13:05:25;25.70;99.90
23207;DHT22;11773;52.570;13.052;2022-08-19T13:07:57;25.70;99.90
23207;DHT22;11773;52.570;13.052;2022-08-19T13:10:31;25.50;99.90
23207;DHT22;11773;52.570;13.052;2022-08-19T13:13:07;25.70;99.90
23207;DHT22;11773;52.570;13.052;2022-08-19T13:15:41;25.80;99.90
23207;DHT22;11773;52.570;13.052;2022-08-19T13:18:13;25.60;99.90
23207;DHT22;11773;52.570;13.052;2022-08-19T13:20:42;25.60;99.90
23207;DHT22;11773;52.570;13.052;2022-08-19T13:23:13;25.70;99.90
23207;DHT22;11773;52.570;13.052;2022-08-19T13:25:43;25.80;99.90
23207;DHT22;11773;52.570;13.052;2022-08-19T13:28:14;25.40;99.90
23207;DHT22;11773;52.570;13.052;2022-08-19T13:30:47;25.40;99.90
23207;DHT22;11773;52.570;13.052;2022-08-19T13:33:35;25.60;99.90
23207;DHT22;11773;52.570;13.052;2022-08-19T13:36:04;25.60;99.90
23207;DHT22;11773;52.570;13.052;2022-08-19T13:38:35;25.70;99.90
23207;DHT22;11773;52.570;13.052;2022-08-19T13:41:06;25.70;99.90
23207;DHT22;11773;52.570;13.052;2022-08-19T13:43:37;25.70;99.90
23207;DHT22;11773;52.570;13.052;2022-08-19T13:46:09;25.70;99.90
23207;DHT22;11773;52.570;13.052;2022-08-19T13:48:41;25.60;99.90
23207;DHT22;11773;52.570;13.052;2022-08-19T13:51:11;25.70;99.90
23207;DHT22;11773;52.570;13.052;2022-08-19T13:53:41;25.70;99.90
23207;DHT22;11773;52.570;13.052;2022-08-19T13:56:15;25.80;99.90
23207;DHT22;11773;52.570;13.052;2022-08-19T13:58:48;25.70;99.90
23207;DHT22;11773;52.570;13.052;2022-08-19T14:01:22;25.50;99.90
23207;DHT22;11773;52.570;13.052;2022-08-19T14:03:54;25.70;99.90
23207;DHT22;11773;52.570;13.052;2022-08-19T14:06:23;25.70;99.90
23207;DHT22;11773;52.570;13.052;2022-08-19T14:08:53;25.90;99.90
23207;DHT22;11773;52.570;13.052;2022-08-19T14:11:22;25.80;99.90
23207;DHT22;11773;52.570;13.052;2022-08-19T14:13:52;25.70;99.90
23207;DHT22;11773;52.570;13.052;2022-08-19T14:16:22;25.80;99.90
23207;DHT22;11773;52.570;13.052;2022-08-19T14:18:52;25.70;99.90
23207;DHT22;11773;52.570;13.052;2022-08-19T14:21:23;25.70;99.90
23207;DHT22;11773;52.570;13.052;2022-08-19T14:23:53;25.60;99.90
23207;DHT22;11773;52.570;13.052;2022-08-19T14:26:23;25.40;99.90
23207;DHT22;11773;52.570;13.052;2022-08-19T14:28:53;25.20;99.90
23207;DHT22;11773;52.570;13.052;2022-08-19T14:31:24;25.60;99.90
23207;DHT22;11773;52.570;13.052;2022-08-19T14:33:56;25.60;99.90
23207;DHT22;11773;52.570;13.052;2022-08-19T14:36:25;25.60;99.90
23207;DHT22;11773;52.570;13.052;2022-08-19T14:38:55;25.80;99.90
23207;DHT22;11773;52.570;13.052;2022-08-19T14:41:25;25.60;99.90
23207;DHT22;11773;52.570;13.052;2022-08-19T14:43:54;25.60;99.90
23207;DHT22;11773;52.570;13.052;2022-08-19T14:46:26;25.70;99.90
23207;DHT22;11773;52.570;13.052;2022-08-19T14:48:56;25.60;99.90
23207;DHT22;11773;52.570;13.052;2022-08-19T14:51:27;25.50;99.90
23207;DHT22;11773;52.570;13.052;2022-08-19T14:53:57;25.30;99.90
23207;DHT22;11773;52.570;13.052;2022-08-19T14:56:28;25.30;99.90
23207;DHT22;11773;52.570;13.052;2022-08-19T14:58:58;25.30;99.90
23207;DHT22;11773;52.570;13.052;2022-08-19T15:01:29;25.40;99.90
23207;DHT22;11773;52.570;13.052;2022-08-19T15:03:58;25.50;99.90
23207;DHT22;11773;52.570;13.052;2022-08-19T15:06:28;25.30;99.90
23207;DHT22;11773;52.570;13.052;2022-08-19T15:08:59;25.30;99.90
23207;DHT22;11773;52.570;13.052;2022-08-19T15:11:31;25.20;99.90
23207;DHT22;11773;52.570;13.052;2022-08-19T15:14:02;25.10;99.90
23207;DHT22;11773;52.570;13.052;2022-08-19T15:16:33;24.90;99.90
23207;DHT22;11773;52.570;13.052;2022-08-19T15:19:03;25.00;99.90
23207;DHT22;11773;52.570;13.052;2022-08-19T15:21:32;24.90;99.90
23207;DHT22;11773;52.570;13.052;2022-08-19T15:24:04;24.90;99.90
23207;DHT22;11773;52.570;13.052;2022-08-19T15:26:33;24.90;99.90
23207;DHT22;11773;52.570;13.052;2022-08-19T15:29:04;24.90;99.90
23207;DHT22;11773;52.570;13.052;2022-08-19T15:31:34;24.90;99.90
23207;DHT22;11773;52.570;13.052;2022-08-19T15:34:05;24.80;99.90
23207;DHT22;11773;52.570;13.052;2022-08-19T15:36:35;24.80;99.90
23207;DHT22;11773;52.570;13.052;2022-08-19T15:39:05;24.80;99.90
23207;DHT22;11773;52.570;13.052;2022-08-19T15:41:37;24.90;99.90
23207;DHT22;11773;52.570;13.052;2022-08-19T15:44:11;24.90;99.90
23207;DHT22;11773;52.570;13.052;2022-08-19T15:46:43;25.00;99.90
23207;DHT22;11773;52.570;13.052;2022-08-19T15:49:16;24.80;99.90